sensor_id;sensor_type;location;lat;lon;timestamp;pressure;altitude;pressure_sealevel;temperature;humidity
67109;BME280;54027;50.786;7.058;2023-08-06T00:01:12;99981.31;;;15.71;100.00
67109;BME280;54027;50.786;7.058;2023-08-06T00:03:37;99979.06;;;15.62;100.00
67109;BME280;54027;50.786;7.058;2023-08-06T00:06:05;99978.41;;;15.57;100.00
67109;BME280;54027;50.786;7.058;2023-08-06T00:08:31;99976.84;;;15.53;100.00
67109;BME280;54027;50.786;7.058;2023-08-06T00:10:56;99976.06;;;15.51;100.00
67109;BME280;54027;50.786;7.058;2023-08-06T00:13:21;99981.50;;;15.45;100.00
67109;BME280;54027;50.786;7.058;2023-08-06T00:15:47;99980.88;;;15.40;100.00
67109;BME280;54027;50.786;7.058;2023-08-06T00:18:12;99988.00;;;15.35;100.00
67109;BME280;54027;50.786;7.058;2023-08-06T00:20:40;99992.50;;;15.31;100.00
67109;BME280;54027;50.786;7.058;2023-08-06T00:23:07;99990.97;;;15.26;100.00
67109;BME280;54027;50.786;7.058;2023-08-06T00:25:32;100004.94;;;15.23;100.00
67109;BME280;54027;50.786;7.058;2023-08-06T00:27:57;100005.03;;;15.21;100.00
67109;BME280;54027;50.786;7.058;2023-08-06T00:30:23;99997.09;;;15.25;100.00
67109;BME280;54027;50.786;7.058;2023-08-06T00:32:48;100001.09;;;15.33;100.00
67109;BME280;54027;50.786;7.058;2023-08-06T00:35:14;100000.47;;;15.48;100.00
67109;BME280;54027;50.786;7.058;2023-08-06T00:37:39;99991.44;;;15.57;100.00
67109;BME280;54027;50.786;7.058;2023-08-06T00:40:06;99992.84;;;15.65;100.00
67109;BME280;54027;50.786;7.058;2023-08-06T00:42:32;99993.63;;;15.67;100.00
67109;BME280;54027;50.786;7.058;2023-08-06T00:44:59;99990.13;;;15.68;100.00
67109;BME280;54027;50.786;7.058;2023-08-06T00:47:25;99982.16;;;15.71;100.00
67109;BME280;54027;50.786;7.058;2023-08-06T00:49:50;99977.81;;;15.72;100.00
67109;BME280;54027;50.786;7.058;2023-08-06T00:52:16;99980.41;;;15.72;100.00
67109;BME280;54027;50.786;7.058;2023-08-06T00:54:41;99978.47;;;15.77;100.00
67109;BME280;54027;50.786;7.058;2023-08-06T00:57:07;99970.59;;;15.79;100.00
67109;BME280;54027;50.786;7.058;2023-08-06T00:59:34;99977.44;;;15.81;100.00
67109;BME280;54027;50.786;7.058;2023-08-06T01:01:59;99967.72;;;15.85;100.00
67109;BME280;54027;50.786;7.058;2023-08-06T01:04:24;99966.78;;;15.86;100.00
67109;BME280;54027;50.786;7.058;2023-08-06T01:06:59;99967.66;;;15.86;100.00
67109;BME280;54027;50.786;7.058;2023-08-06T01:09:38;99963.28;;;15.87;100.00
67109;BME280;54027;50.786;7.058;2023-08-06T01:17:31;99957.22;;;15.86;100.00
67109;BME280;54027;50.786;7.058;2023-08-06T01:19:57;99960.84;;;15.82;100.00
67109;BME280;54027;50.786;7.058;2023-08-06T01:22:22;99953.03;;;15.82;100.00
67109;BME280;54027;50.786;7.058;2023-08-06T01:24:50;99953.16;;;15.79;100.00
67109;BME280;54027;50.786;7.058;2023-08-06T01:30:16;99953.16;;;15.79;100.00
67109;BME280;54027;50.786;7.058;2023-08-06T01:32:44;99950.66;;;15.78;100.00
67109;BME280;54027;50.786;7.058;2023-08-06T01:35:12;99941.25;;;15.73;100.00
67109;BME280;54027;50.786;7.058;2023-08-06T01:37:39;99948.50;;;15.67;100.00
67109;BME280;54027;50.786;7.058;2023-08-06T01:40:14;99938.13;;;15.65;100.00
67109;BME280;54027;50.786;7.058;2023-08-06T01:42:39;99940.91;;;15.61;100.00
67109;BME280;54027;50.786;7.058;2023-08-06T01:45:07;99934.78;;;15.62;100.00
67109;BME280;54027;50.786;7.058;2023-08-06T01:47:33;99937.38;;;15.62;100.00
67109;BME280;54027;50.786;7.058;2023-08-06T01:49:58;99929.56;;;15.63;100.00
67109;BME280;54027;50.786;7.058;2023-08-06T01:52:24;99928.69;;;15.63;100.00
67109;BME280;54027;50.786;7.058;2023-08-06T01:54:49;99929.56;;;15.62;100.00
67109;BME280;54027;50.786;7.058;2023-08-06T01:57:14;99922.69;;;15.61;100.00
67109;BME280;54027;50.786;7.058;2023-08-06T01:59:40;99915.69;;;15.61;100.00
67109;BME280;54027;50.786;7.058;2023-08-06T02:02:05;99918.28;;;15.63;100.00
67109;BME280;54027;50.786;7.058;2023-08-06T02:04:30;99922.69;;;15.61;100.00
67109;BME280;54027;50.786;7.058;2023-08-06T02:06:56;99910.47;;;15.61;100.00
67109;BME280;54027;50.786;7.058;2023-08-06T02:09:21;99912.25;;;15.61;100.00
67109;BME280;54027;50.786;7.058;2023-08-06T02:11:46;99907.06;;;15.61;100.00
67109;BME280;54027;50.786;7.058;2023-08-06T02:14:12;99910.47;;;15.61;100.00
67109;BME280;54027;50.786;7.058;2023-08-06T02:16:37;99905.34;;;15.60;100.00
67109;BME280;54027;50.786;7.058;2023-08-06T02:19:02;99906.34;;;15.57;100.00
67109;BME280;54027;50.786;7.058;2023-08-06T02:21:28;99898.44;;;15.59;100.00
67109;BME280;54027;50.786;7.058;2023-08-06T02:23:53;99905.13;;;15.66;100.00
67109;BME280;54027;50.786;7.058;2023-08-06T02:26:18;99902.44;;;15.67;100.00
67109;BME280;54027;50.786;7.058;2023-08-06T02:28:44;99903.38;;;15.66;100.00
67109;BME280;54027;50.786;7.058;2023-08-06T02:31:09;99906.69;;;15.70;100.00
67109;BME280;54027;50.786;7.058;2023-08-06T02:33:35;99906.63;;;15.71;100.00
67109;BME280;54027;50.786;7.058;2023-08-06T02:36:03;99896.19;;;15.71;100.00
67109;BME280;54027;50.786;7.058;2023-08-06T02:38:30;99900.41;;;15.74;100.00
67109;BME280;54027;50.786;7.058;2023-08-06T02:40:55;99893.44;;;15.74;100.00
67109;BME280;54027;50.786;7.058;2023-08-06T02:43:21;99893.53;;;15.73;100.00
67109;BME280;54027;50.786;7.058;2023-08-06T02:45:46;99894.34;;;15.73;100.00
67109;BME280;54027;50.786;7.058;2023-08-06T02:48:11;99886.53;;;15.73;100.00
67109;BME280;54027;50.786;7.058;2023-08-06T02:50:40;99893.44;;;15.74;100.00
67109;BME280;54027;50.786;7.058;2023-08-06T02:53:09;99883.81;;;15.76;100.00
67109;BME280;54027;50.786;7.058;2023-08-06T02:55:34;99884.75;;;15.75;100.00
67109;BME280;54027;50.786;7.058;2023-08-06T02:58:01;99881.34;;;15.73;100.00
67109;BME280;54027;50.786;7.058;2023-08-06T03:00:27;99876.25;;;15.70;100.00
67109;BME280;54027;50.786;7.058;2023-08-06T03:02:53;99876.38;;;15.67;100.00
67109;BME280;54027;50.786;7.058;2023-08-06T03:05:18;99874.84;;;15.62;100.00
67109;BME280;54027;50.786;7.058;2023-08-06T03:07:43;99868.88;;;15.60;100.00
67109;BME280;54027;50.786;7.058;2023-08-06T03:10:09;99867.19;;;15.59;100.00
67109;BME280;54027;50.786;7.058;2023-08-06T03:12:34;99864.84;;;15.53;100.00
67109;BME280;54027;50.786;7.058;2023-08-06T03:15:00;99865.03;;;15.48;100.00
67109;BME280;54027;50.786;7.058;2023-08-06T03:17:25;99858.25;;;15.44;100.00
67109;BME280;54027;50.786;7.058;2023-08-06T03:19:50;99860.16;;;15.41;100.00
67109;BME280;54027;50.786;7.058;2023-08-06T03:22:16;99861.00;;;15.41;100.00
67109;BME280;54027;50.786;7.058;2023-08-06T03:24:41;99854.94;;;15.41;100.00
67109;BME280;54027;50.786;7.058;2023-08-06T03:27:06;99854.94;;;15.41;100.00
67109;BME280;54027;50.786;7.058;2023-08-06T03:29:32;99848.09;;;15.38;100.00
67109;BME280;54027;50.786;7.058;2023-08-06T03:31:57;99849.09;;;15.36;100.00
67109;BME280;54027;50.786;7.058;2023-08-06T03:34:22;99852.59;;;15.35;100.00
67109;BME280;54027;50.786;7.058;2023-08-06T03:36:47;99843.97;;;15.34;100.00
67109;BME280;54027;50.786;7.058;2023-08-06T03:39:13;99853.44;;;15.35;100.00
67109;BME280;54027;50.786;7.058;2023-08-06T03:41:39;99850.91;;;15.34;100.00
67109;BME280;54027;50.786;7.058;2023-08-06T03:44:04;99842.25;;;15.33;100.00
67109;BME280;54027;50.786;7.058;2023-08-06T03:46:30;99843.09;;;15.34;100.00
67109;BME280;54027;50.786;7.058;2023-08-06T03:48:59;99840.56;;;15.32;100.00
67109;BME280;54027;50.786;7.058;2023-08-06T03:51:24;99846.56;;;15.34;100.00
67109;BME280;54027;50.786;7.058;2023-08-06T03:53:49;99842.13;;;15.36;100.00
67109;BME280;54027;50.786;7.058;2023-08-06T03:56:14;99840.38;;;15.37;100.00
67109;BME280;54027;50.786;7.058;2023-08-06T03:58:40;99836.78;;;15.39;100.00
67109;BME280;54027;50.786;7.058;2023-08-06T04:01:05;99842.00;;;15.39;100.00
67109;BME280;54027;50.786;7.058;2023-08-06T04:03:30;99839.38;;;15.39;100.00
67109;BME280;54027;50.786;7.058;2023-08-06T04:05:56;99842.91;;;15.38;100.00
67109;BME280;54027;50.786;7.058;2023-08-06T04:08:21;99842.75;;;15.41;100.00
67109;BME280;54027;50.786;7.058;2023-08-06T04:10:51;99847.94;;;15.43;100.00
67109;BME280;54027;50.786;7.058;2023-08-06T04:13:17;99844.47;;;15.42;100.00
67109;BME280;54027;50.786;7.058;2023-08-06T04:15:42;99851.50;;;15.40;100.00
67109;BME280;54027;50.786;7.058;2023-08-06T04:18:08;99840.16;;;15.41;100.00
67109;BME280;54027;50.786;7.058;2023-08-06T04:20:33;99846.31;;;15.40;100.00
67109;BME280;54027;50.786;7.058;2023-08-06T04:22:58;99843.75;;;15.39;100.00
67109;BME280;54027;50.786;7.058;2023-08-06T04:25:23;99841.16;;;15.39;100.00
67109;BME280;54027;50.786;7.058;2023-08-06T04:27:49;99845.38;;;15.41;100.00
67109;BME280;54027;50.786;7.058;2023-08-06T04:30:15;99839.25;;;15.42;100.00
67109;BME280;54027;50.786;7.058;2023-08-06T04:32:41;99838.41;;;15.42;100.00
67109;BME280;54027;50.786;7.058;2023-08-06T04:35:07;99839.25;;;15.42;100.00
67109;BME280;54027;50.786;7.058;2023-08-06T04:37:32;99844.53;;;15.41;100.00
67109;BME280;54027;50.786;7.058;2023-08-06T04:39:58;99840.16;;;15.41;100.00
67109;BME280;54027;50.786;7.058;2023-08-06T04:42:23;99834.06;;;15.42;100.00
67109;BME280;54027;50.786;7.058;2023-08-06T04:44:48;99838.28;;;15.45;100.00
67109;BME280;54027;50.786;7.058;2023-08-06T04:47:14;99835.63;;;15.46;100.00
67109;BME280;54027;50.786;7.058;2023-08-06T04:49:39;99832.88;;;15.49;100.00
67109;BME280;54027;50.786;7.058;2023-08-06T04:52:05;99833.66;;;15.51;100.00
67109;BME280;54027;50.786;7.058;2023-08-06T04:54:30;99843.09;;;15.54;100.00
67109;BME280;54027;50.786;7.058;2023-08-06T04:56:56;99840.34;;;15.57;100.00
67109;BME280;54027;50.786;7.058;2023-08-06T04:59:21;99840.13;;;15.63;100.00
67109;BME280;54027;50.786;7.058;2023-08-06T05:01:46;99837.44;;;15.64;100.00
67109;BME280;54027;50.786;7.058;2023-08-06T05:04:11;99844.97;;;15.70;100.00
67109;BME280;54027;50.786;7.058;2023-08-06T05:06:37;99843.09;;;15.74;100.00
67109;BME280;54027;50.786;7.058;2023-08-06T05:09:06;99839.59;;;15.75;100.00
67109;BME280;54027;50.786;7.058;2023-08-06T05:11:31;99837.63;;;15.80;100.00
67109;BME280;54027;50.786;7.058;2023-08-06T05:13:57;99836.72;;;15.81;100.00
67109;BME280;54027;50.786;7.058;2023-08-06T05:16:22;99838.59;;;15.78;100.00
67109;BME280;54027;50.786;7.058;2023-08-06T05:18:47;99843.81;;;15.78;100.00
67109;BME280;54027;50.786;7.058;2023-08-06T05:21:13;99842.91;;;15.79;100.00
67109;BME280;54027;50.786;7.058;2023-08-06T05:23:38;99839.50;;;15.76;100.00
67109;BME280;54027;50.786;7.058;2023-08-06T05:26:04;99846.16;;;15.84;100.00
67109;BME280;54027;50.786;7.058;2023-08-06T05:28:29;99851.00;;;15.91;100.00
67109;BME280;54027;50.786;7.058;2023-08-06T05:30:54;99849.84;;;15.98;100.00
67109;BME280;54027;50.786;7.058;2023-08-06T05:33:20;99848.97;;;15.98;100.00
67109;BME280;54027;50.786;7.058;2023-08-06T05:35:45;99858.22;;;16.05;100.00
67109;BME280;54027;50.786;7.058;2023-08-06T05:38:10;99855.75;;;16.02;100.00
67109;BME280;54027;50.786;7.058;2023-08-06T05:40:36;99857.50;;;16.01;100.00
67109;BME280;54027;50.786;7.058;2023-08-06T05:43:01;99860.13;;;16.01;100.00
67109;BME280;54027;50.786;7.058;2023-08-06T05:45:26;99856.78;;;15.98;100.00
67109;BME280;54027;50.786;7.058;2023-08-06T05:47:52;99860.34;;;15.97;100.00
67109;BME280;54027;50.786;7.058;2023-08-06T05:50:19;99868.94;;;15.99;100.00
67109;BME280;54027;50.786;7.058;2023-08-06T05:52:44;99863.78;;;15.97;100.00
67109;BME280;54027;50.786;7.058;2023-08-06T05:55:10;99860.22;;;16.00;100.00
67109;BME280;54027;50.786;7.058;2023-08-06T05:57:35;99868.72;;;16.03;100.00
67109;BME280;54027;50.786;7.058;2023-08-06T06:00:01;99866.69;;;16.10;100.00
67109;BME280;54027;50.786;7.058;2023-08-06T06:02:26;99863.16;;;16.11;100.00
67109;BME280;54027;50.786;7.058;2023-08-06T06:04:52;99874.44;;;16.11;100.00
67109;BME280;54027;50.786;7.058;2023-08-06T06:07:17;99875.50;;;16.07;100.00
67109;BME280;54027;50.786;7.058;2023-08-06T06:09:43;99871.91;;;16.10;100.00
67109;BME280;54027;50.786;7.058;2023-08-06T06:12:08;99874.44;;;16.11;100.00
67109;BME280;54027;50.786;7.058;2023-08-06T06:14:33;99881.34;;;16.12;100.00
67109;BME280;54027;50.786;7.058;2023-08-06T06:16:59;99888.16;;;16.15;100.00
67109;BME280;54027;50.786;7.058;2023-08-06T06:19:25;99889.00;;;16.15;100.00
67109;BME280;54027;50.786;7.058;2023-08-06T06:21:50;99885.56;;;16.15;100.00
67109;BME280;54027;50.786;7.058;2023-08-06T06:24:16;99888.03;;;16.18;100.00
67109;BME280;54027;50.786;7.058;2023-08-06T06:26:41;99888.75;;;16.21;100.00
67109;BME280;54027;50.786;7.058;2023-08-06T06:29:06;99889.44;;;16.25;100.00
67109;BME280;54027;50.786;7.058;2023-08-06T06:31:32;99891.84;;;16.29;100.00
67109;BME280;54027;50.786;7.058;2023-08-06T06:33:57;99889.81;;;16.36;100.00
67109;BME280;54027;50.786;7.058;2023-08-06T06:36:22;99896.59;;;16.40;100.00
67109;BME280;54027;50.786;7.058;2023-08-06T06:38:49;99904.41;;;16.40;100.00
67109;BME280;54027;50.786;7.058;2023-08-06T06:41:14;99902.66;;;16.41;100.00
67109;BME280;54027;50.786;7.058;2023-08-06T06:43:39;99896.59;;;16.40;100.00
67109;BME280;54027;50.786;7.058;2023-08-06T06:46:05;99899.53;;;16.32;100.00
67109;BME280;54027;50.786;7.058;2023-08-06T06:48:32;99895.16;;;16.33;100.00
67109;BME280;54027;50.786;7.058;2023-08-06T06:50:58;99900.22;;;16.36;100.00
67109;BME280;54027;50.786;7.058;2023-08-06T06:53:24;99902.94;;;16.35;100.00
67109;BME280;54027;50.786;7.058;2023-08-06T06:55:56;99911.81;;;16.49;100.00
67109;BME280;54027;50.786;7.058;2023-08-06T06:58:22;99905.88;;;16.64;100.00
67109;BME280;54027;50.786;7.058;2023-08-06T07:00:48;99904.81;;;16.68;100.00
67109;BME280;54027;50.786;7.058;2023-08-06T07:03:14;99907.06;;;16.76;100.00
67109;BME280;54027;50.786;7.058;2023-08-06T07:05:40;99903.13;;;16.86;100.00
67109;BME280;54027;50.786;7.058;2023-08-06T07:08:05;99903.38;;;16.99;100.00
67109;BME280;54027;50.786;7.058;2023-08-06T07:10:33;99910.63;;;17.11;100.00
67109;BME280;54027;50.786;7.058;2023-08-06T07:12:58;99902.78;;;17.11;100.00
67109;BME280;54027;50.786;7.058;2023-08-06T07:15:24;99917.44;;;17.32;100.00
67109;BME280;54027;50.786;7.058;2023-08-06T07:17:49;99915.66;;;17.32;100.00
67109;BME280;54027;50.786;7.058;2023-08-06T07:20:14;99912.66;;;17.40;100.00
67109;BME280;54027;50.786;7.058;2023-08-06T07:22:40;99919.88;;;17.35;100.00
67109;BME280;54027;50.786;7.058;2023-08-06T07:25:05;99918.56;;;17.26;100.00
67109;BME280;54027;50.786;7.058;2023-08-06T07:27:32;99924.66;;;17.27;100.00
67109;BME280;54027;50.786;7.058;2023-08-06T07:29:57;99921.34;;;17.23;99.63
67109;BME280;54027;50.786;7.058;2023-08-06T07:32:23;99926.16;;;17.31;99.77
67109;BME280;54027;50.786;7.058;2023-08-06T07:34:49;99923.41;;;17.34;98.68
67109;BME280;54027;50.786;7.058;2023-08-06T07:37:14;99929.94;;;17.42;97.83
67109;BME280;54027;50.786;7.058;2023-08-06T07:39:39;99923.75;;;17.62;97.35
67109;BME280;54027;50.786;7.058;2023-08-06T07:42:06;99925.09;;;17.69;95.07
67109;BME280;54027;50.786;7.058;2023-08-06T07:44:32;99928.66;;;17.85;95.31
67109;BME280;54027;50.786;7.058;2023-08-06T07:46:57;99919.50;;;17.94;94.38
67109;BME280;54027;50.786;7.058;2023-08-06T07:49:23;99922.38;;;17.89;93.13
67109;BME280;54027;50.786;7.058;2023-08-06T07:51:48;99933.66;;;17.90;95.14
67109;BME280;54027;50.786;7.058;2023-08-06T07:54:13;99927.66;;;17.88;94.90
67109;BME280;54027;50.786;7.058;2023-08-06T07:56:39;99927.25;;;17.78;92.61
67109;BME280;54027;50.786;7.058;2023-08-06T07:59:04;99937.47;;;17.83;94.02
67109;BME280;54027;50.786;7.058;2023-08-06T08:01:30;99933.31;;;17.79;92.22
67109;BME280;54027;50.786;7.058;2023-08-06T08:03:55;99932.72;;;17.74;92.28
67109;BME280;54027;50.786;7.058;2023-08-06T08:06:20;99928.56;;;17.70;92.84
67109;BME280;54027;50.786;7.058;2023-08-06T08:08:46;99934.56;;;17.55;93.55
67109;BME280;54027;50.786;7.058;2023-08-06T08:11:11;99943.78;;;17.62;94.24
67109;BME280;54027;50.786;7.058;2023-08-06T08:13:36;99943.78;;;17.62;94.64
67109;BME280;54027;50.786;7.058;2023-08-06T08:16:02;99943.25;;;17.72;95.99
67109;BME280;54027;50.786;7.058;2023-08-06T08:18:28;99940.47;;;17.75;95.47
67109;BME280;54027;50.786;7.058;2023-08-06T08:20:53;99942.19;;;17.76;95.50
67109;BME280;54027;50.786;7.058;2023-08-06T08:23:18;99941.56;;;17.71;94.55
67109;BME280;54027;50.786;7.058;2023-08-06T08:25:44;99938.63;;;17.60;92.72
67109;BME280;54027;50.786;7.058;2023-08-06T08:28:09;99941.25;;;17.60;94.07
67109;BME280;54027;50.786;7.058;2023-08-06T08:30:34;99939.78;;;17.55;93.83
67109;BME280;54027;50.786;7.058;2023-08-06T08:33:00;99949.47;;;17.53;94.55
67109;BME280;54027;50.786;7.058;2023-08-06T08:35:25;99949.63;;;17.50;95.10
67109;BME280;54027;50.786;7.058;2023-08-06T08:37:51;99942.66;;;17.50;96.53
67109;BME280;54027;50.786;7.058;2023-08-06T08:40:17;99950.94;;;17.41;96.55
67109;BME280;54027;50.786;7.058;2023-08-06T08:42:43;99952.53;;;17.43;96.72
67109;BME280;54027;50.786;7.058;2023-08-06T08:45:14;99949.69;;;17.31;96.54
67109;BME280;54027;50.786;7.058;2023-08-06T08:47:43;99949.69;;;17.31;97.27
67109;BME280;54027;50.786;7.058;2023-08-06T08:50:09;99948.84;;;17.30;97.40
67109;BME280;54027;50.786;7.058;2023-08-06T08:52:38;99955.06;;;17.28;97.72
67109;BME280;54027;50.786;7.058;2023-08-06T08:55:03;99959.91;;;17.18;96.38
67109;BME280;54027;50.786;7.058;2023-08-06T08:57:29;99955.28;;;17.23;96.25
67109;BME280;54027;50.786;7.058;2023-08-06T08:59:55;99955.06;;;17.28;96.16
67109;BME280;54027;50.786;7.058;2023-08-06T09:02:21;99959.13;;;17.33;95.79
67109;BME280;54027;50.786;7.058;2023-08-06T09:04:48;99955.47;;;17.55;96.73
67109;BME280;54027;50.786;7.058;2023-08-06T09:07:18;99955.56;;;17.87;94.95
67109;BME280;54027;50.786;7.058;2023-08-06T09:09:47;99959.91;;;18.21;92.58
67109;BME280;54027;50.786;7.058;2023-08-06T09:12:16;99963.13;;;18.26;90.83
67109;BME280;54027;50.786;7.058;2023-08-06T09:14:43;99967.59;;;18.24;90.98
67109;BME280;54027;50.786;7.058;2023-08-06T09:17:09;99962.09;;;18.13;91.05
67109;BME280;54027;50.786;7.058;2023-08-06T09:19:36;99973.78;;;18.06;91.86
67109;BME280;54027;50.786;7.058;2023-08-06T09:22:01;99966.03;;;18.05;91.88
67109;BME280;54027;50.786;7.058;2023-08-06T09:24:27;99969.31;;;18.08;93.18
67109;BME280;54027;50.786;7.058;2023-08-06T09:26:53;99960.13;;;18.17;91.84
67109;BME280;54027;50.786;7.058;2023-08-06T09:29:19;99970.09;;;18.10;91.13
67109;BME280;54027;50.786;7.058;2023-08-06T09:31:49;99977.16;;;18.08;92.15
67109;BME280;54027;50.786;7.058;2023-08-06T09:34:22;99985.03;;;17.91;91.79
67109;BME280;54027;50.786;7.058;2023-08-06T09:36:52;99987.16;;;17.66;92.53
67109;BME280;54027;50.786;7.058;2023-08-06T09:39:20;99990.44;;;17.52;94.30
67109;BME280;54027;50.786;7.058;2023-08-06T09:41:46;99993.44;;;17.45;94.95
67109;BME280;54027;50.786;7.058;2023-08-06T09:44:18;99996.56;;;17.34;94.92
67109;BME280;54027;50.786;7.058;2023-08-06T09:46:54;99999.53;;;17.26;95.02
67109;BME280;54027;50.786;7.058;2023-08-06T09:49:25;100011.34;;;17.16;96.63
67109;BME280;54027;50.786;7.058;2023-08-06T09:51:52;100011.00;;;17.24;98.59
67109;BME280;54027;50.786;7.058;2023-08-06T09:54:22;100014.59;;;17.21;100.00
67109;BME280;54027;50.786;7.058;2023-08-06T09:56:48;100017.56;;;16.95;100.00
67109;BME280;54027;50.786;7.058;2023-08-06T09:59:14;100022.03;;;16.73;100.00
67109;BME280;54027;50.786;7.058;2023-08-06T10:01:41;100031.59;;;16.54;100.00
67109;BME280;54027;50.786;7.058;2023-08-06T10:04:06;100038.19;;;16.23;100.00
67109;BME280;54027;50.786;7.058;2023-08-06T10:06:38;100050.94;;;16.09;100.00
67109;BME280;54027;50.786;7.058;2023-08-06T10:09:04;100060.38;;;15.92;100.00
67109;BME280;54027;50.786;7.058;2023-08-06T10:11:30;100061.44;;;15.66;100.00
67109;BME280;54027;50.786;7.058;2023-08-06T10:14:06;100059.47;;;15.49;100.00
67109;BME280;54027;50.786;7.058;2023-08-06T10:16:34;100072.59;;;15.25;100.00
67109;BME280;54027;50.786;7.058;2023-08-06T10:19:01;100086.00;;;15.14;100.00
67109;BME280;54027;50.786;7.058;2023-08-06T10:21:26;100091.63;;;15.03;100.00
67109;BME280;54027;50.786;7.058;2023-08-06T10:23:56;100087.72;;;14.92;100.00
67109;BME280;54027;50.786;7.058;2023-08-06T10:26:26;100103.72;;;14.81;100.00
67109;BME280;54027;50.786;7.058;2023-08-06T10:28:52;100103.31;;;14.69;100.00
67109;BME280;54027;50.786;7.058;2023-08-06T10:31:18;100113.25;;;14.57;100.00
67109;BME280;54027;50.786;7.058;2023-08-06T10:33:47;100125.63;;;14.51;100.00
67109;BME280;54027;50.786;7.058;2023-08-06T10:36:14;100112.84;;;14.45;100.00
67109;BME280;54027;50.786;7.058;2023-08-06T10:38:47;100110.38;;;14.40;100.00
67109;BME280;54027;50.786;7.058;2023-08-06T10:41:23;100122.31;;;14.46;100.00
67109;BME280;54027;50.786;7.058;2023-08-06T10:43:49;100121.16;;;14.54;100.00
67109;BME280;54027;50.786;7.058;2023-08-06T10:46:27;100132.50;;;14.52;100.00
67109;BME280;54027;50.786;7.058;2023-08-06T10:48:53;100141.91;;;14.56;100.00
67109;BME280;54027;50.786;7.058;2023-08-06T10:51:19;100142.03;;;14.53;100.00
67109;BME280;54027;50.786;7.058;2023-08-06T10:53:46;100136.16;;;14.46;100.00
67109;BME280;54027;50.786;7.058;2023-08-06T10:56:22;100145.88;;;14.41;100.00
67109;BME280;54027;50.786;7.058;2023-08-06T10:58:48;100151.88;;;14.43;100.00
67109;BME280;54027;50.786;7.058;2023-08-06T11:01:13;100146.56;;;14.46;100.00
67109;BME280;54027;50.786;7.058;2023-08-06T11:03:40;100156.78;;;14.52;100.00
67109;BME280;54027;50.786;7.058;2023-08-06T11:06:10;100169.88;;;14.49;100.00
67109;BME280;54027;50.786;7.058;2023-08-06T11:08:47;100174.38;;;14.44;100.00
67109;BME280;54027;50.786;7.058;2023-08-06T11:11:14;100177.53;;;14.54;100.00
67109;BME280;54027;50.786;7.058;2023-08-06T11:13:43;100184.78;;;14.44;100.00
67109;BME280;54027;50.786;7.058;2023-08-06T11:16:12;100184.63;;;14.49;100.00
67109;BME280;54027;50.786;7.058;2023-08-06T11:18:37;100175.94;;;14.50;100.00
67109;BME280;54027;50.786;7.058;2023-08-06T11:21:03;100191.69;;;14.45;100.00
67109;BME280;54027;50.786;7.058;2023-08-06T11:23:31;100182.03;;;14.49;100.00
67109;BME280;54027;50.786;7.058;2023-08-06T11:25:57;100189.94;;;14.46;100.00
67109;BME280;54027;50.786;7.058;2023-08-06T11:28:23;100186.53;;;14.44;100.00
67109;BME280;54027;50.786;7.058;2023-08-06T11:30:49;100191.47;;;14.51;100.00
67109;BME280;54027;50.786;7.058;2023-08-06T11:33:20;100187.94;;;14.54;100.00
67109;BME280;54027;50.786;7.058;2023-08-06T11:35:47;100207.72;;;14.58;100.00
67109;BME280;54027;50.786;7.058;2023-08-06T11:38:13;100199.03;;;14.59;100.00
67109;BME280;54027;50.786;7.058;2023-08-06T11:40:39;100208.28;;;14.68;100.00
67109;BME280;54027;50.786;7.058;2023-08-06T11:43:05;100211.56;;;14.73;100.00
67109;BME280;54027;50.786;7.058;2023-08-06T11:45:31;100214.06;;;14.76;100.00
67109;BME280;54027;50.786;7.058;2023-08-06T11:47:59;100216.44;;;14.82;100.00
67109;BME280;54027;50.786;7.058;2023-08-06T11:50:26;100210.28;;;14.84;100.00
67109;BME280;54027;50.786;7.058;2023-08-06T11:52:59;100218.72;;;14.91;100.00
67109;BME280;54027;50.786;7.058;2023-08-06T11:55:26;100237.78;;;14.93;100.00
67109;BME280;54027;50.786;7.058;2023-08-06T11:57:53;100228.34;;;14.89;100.00
67109;BME280;54027;50.786;7.058;2023-08-06T12:00:19;100230.97;;;14.89;100.00
67109;BME280;54027;50.786;7.058;2023-08-06T12:02:48;100239.56;;;14.91;100.00
67109;BME280;54027;50.786;7.058;2023-08-06T12:05:21;100230.88;;;14.90;100.00
67109;BME280;54027;50.786;7.058;2023-08-06T12:07:53;100234.31;;;14.92;100.00
67109;BME280;54027;50.786;7.058;2023-08-06T12:10:20;100239.19;;;15.01;100.00
67109;BME280;54027;50.786;7.058;2023-08-06T12:12:46;100237.56;;;14.99;100.00
67109;BME280;54027;50.786;7.058;2023-08-06T12:15:12;100250.34;;;15.05;100.00
67109;BME280;54027;50.786;7.058;2023-08-06T12:17:38;100244.34;;;15.03;100.00
67109;BME280;54027;50.786;7.058;2023-08-06T12:20:05;100245.00;;;15.08;100.00
67109;BME280;54027;50.786;7.058;2023-08-06T12:22:31;100252.03;;;15.06;100.00
67109;BME280;54027;50.786;7.058;2023-08-06T12:25:00;100256.47;;;15.04;100.00
67109;BME280;54027;50.786;7.058;2023-08-06T12:27:26;100253.97;;;15.01;100.00
67109;BME280;54027;50.786;7.058;2023-08-06T12:29:51;100252.09;;;15.04;100.00
67109;BME280;54027;50.786;7.058;2023-08-06T12:32:17;100261.59;;;15.05;100.00
67109;BME280;54027;50.786;7.058;2023-08-06T12:34:42;100257.22;;;15.07;100.00
67109;BME280;54027;50.786;7.058;2023-08-06T12:37:08;100252.03;;;15.06;100.00
67109;BME280;54027;50.786;7.058;2023-08-06T12:39:37;100246.94;;;15.03;100.00
67109;BME280;54027;50.786;7.058;2023-08-06T12:42:04;100254.41;;;15.13;100.00
67109;BME280;54027;50.786;7.058;2023-08-06T12:44:29;100255.84;;;15.20;100.00
67109;BME280;54027;50.786;7.058;2023-08-06T12:46:55;100262.81;;;15.20;100.00
67109;BME280;54027;50.786;7.058;2023-08-06T12:49:21;100263.84;;;15.16;100.00
67109;BME280;54027;50.786;7.058;2023-08-06T12:51:48;100265.53;;;15.17;100.00
67109;BME280;54027;50.786;7.058;2023-08-06T12:54:13;100268.94;;;15.19;100.00